Time;durP1;ratioP1;P1;durP2;ratioP2;P2;SDS_P1;SDS_P2;PMS_P1;PMS_P2;Temp;Humidity;BMP_temperature;BMP_pressure;BME280_temperature;BME280_humidity;BME280_pressure;Samples;Min_cycle;Max_cycle;Signal;HPM_P1;HPM_P2
2023/03/04 00:00:01;;;;;;;11.30;3.63;;;6.70;99.90;;;;;;5007480;28;20544;-71
2023/03/04 00:02:27;;;;;;;6.00;3.90;;;6.80;99.90;;;;;;5008154;28;20878;-71
2023/03/04 00:04:56;;;;;;;4.60;2.60;;;6.60;99.90;;;;;;5007781;28;20827;-71
2023/03/04 00:07:23;;;;;;;5.70;2.43;;;6.50;99.90;;;;;;5007900;28;20456;-71
2023/03/04 00:09:50;;;;;;;3.47;2.53;;;6.50;99.90;;;;;;5009348;28;20458;-71
2023/03/04 00:12:16;;;;;;;5.20;2.40;;;6.50;99.90;;;;;;5009544;28;20568;-71
2023/03/04 00:14:43;;;;;;;7.93;2.10;;;6.40;99.90;;;;;;5004986;28;20424;-71
2023/03/04 00:17:10;;;;;;;2.90;1.30;;;6.50;99.90;;;;;;5004081;28;20477;-71
2023/03/04 00:19:37;;;;;;;5.27;1.97;;;6.50;99.90;;;;;;5010310;28;20606;-71
2023/03/04 00:22:05;;;;;;;5.30;2.53;;;6.50;99.90;;;;;;5006389;28;20969;-71
2023/03/04 00:24:33;;;;;;;9.13;2.27;;;6.60;99.90;;;;;;5010611;28;20865;-70
2023/03/04 00:27:00;;;;;;;4.37;1.73;;;6.60;99.90;;;;;;5006972;28;20455;-72
2023/03/04 00:29:27;;;;;;;3.50;2.40;;;6.60;99.90;;;;;;5005784;28;20962;-71
2023/03/04 00:31:55;;;;;;;4.53;2.07;;;6.50;99.90;;;;;;5002054;28;20885;-71
2023/03/04 00:34:22;;;;;;;4.30;2.47;;;6.60;99.90;;;;;;5002884;28;20572;-71
2023/03/04 00:36:49;;;;;;;4.17;2.50;;;6.60;99.90;;;;;;5002562;28;20531;-71
2023/03/04 00:39:18;;;;;;;2.63;2.40;;;6.50;99.90;;;;;;5005183;28;20531;-71
2023/03/04 00:41:45;;;;;;;3.20;2.90;;;6.50;99.90;;;;;;5006604;28;20834;-70
2023/03/04 00:44:12;;;;;;;3.20;2.63;;;6.60;99.90;;;;;;5000507;28;20461;-69
2023/03/04 00:46:39;;;;;;;3.03;1.90;;;6.60;99.90;;;;;;5008227;28;20452;-70
2023/03/04 00:49:06;;;;;;;7.77;3.03;;;6.60;99.90;;;;;;5006837;28;20522;-70
2023/03/04 00:51:32;;;;;;;4.30;2.20;;;6.60;99.90;;;;;;5004424;28;20444;-71
2023/03/04 00:53:59;;;;;;;7.03;2.33;;;6.60;99.90;;;;;;5005668;28;20547;-70
2023/03/04 00:56:28;;;;;;;9.40;2.47;;;6.60;99.90;;;;;;5002831;28;20928;-70
2023/03/04 00:58:55;;;;;;;3.90;2.40;;;6.70;99.90;;;;;;5007790;28;20924;-70
2023/03/04 01:01:22;;;;;;;1.40;1.30;;;6.60;99.90;;;;;;5001840;28;20436;-70
2023/03/04 01:03:49;;;;;;;4.73;2.00;;;6.40;99.90;;;;;;5007960;28;20432;-70
2023/03/04 01:06:16;;;;;;;5.00;2.27;;;6.50;99.90;;;;;;5007785;28;20477;-71
2023/03/04 01:08:43;;;;;;;3.70;2.97;;;6.60;99.90;;;;;;5007316;28;20436;-70
2023/03/04 01:11:10;;;;;;;9.60;2.03;;;6.60;99.90;;;;;;5007500;28;20445;-70
2023/03/04 01:13:38;;;;;;;4.50;2.50;;;6.60;99.90;;;;;;5003512;28;20915;-70
2023/03/04 01:16:06;;;;;;;4.63;2.40;;;6.60;99.90;;;;;;5020645;28;20455;-70
2023/03/04 01:18:33;;;;;;;1.57;1.37;;;6.70;99.90;;;;;;5020048;28;20440;-70
2023/03/04 01:21:03;;;;;;;6.53;2.27;;;6.70;99.90;;;;;;5019428;28;20500;-70
2023/03/04 01:23:30;;;;;;;7.40;2.37;;;6.70;99.90;;;;;;5005031;28;20478;-70
2023/03/04 01:25:57;;;;;;;4.50;1.67;;;6.60;99.90;;;;;;5002365;28;20413;-70
2023/03/04 01:28:24;;;;;;;6.57;1.93;;;6.60;99.90;;;;;;5011106;28;20461;-68
2023/03/04 01:30:54;;;;;;;2.17;1.40;;;6.60;99.90;;;;;;5005172;28;20513;-69
2023/03/04 01:33:21;;;;;;;19.70;3.07;;;6.50;99.90;;;;;;5010286;28;20481;-70
2023/03/04 01:35:47;;;;;;;4.93;2.50;;;6.60;99.90;;;;;;5003859;28;20468;-70
2023/03/04 01:38:14;;;;;;;5.50;1.97;;;6.60;99.90;;;;;;5003638;28;20464;-69
2023/03/04 01:40:41;;;;;;;4.60;2.07;;;6.50;99.90;;;;;;5002818;28;20441;-70
2023/03/04 01:43:15;;;;;;;9.07;2.53;;;6.40;99.90;;;;;;5007654;28;20453;-69
2023/03/04 01:45:42;;;;;;;4.30;1.73;;;6.30;99.90;;;;;;5005800;28;21043;-69
2023/03/04 01:48:16;;;;;;;8.33;1.80;;;6.50;99.90;;;;;;5008010;28;20571;-70
2023/03/04 01:50:43;;;;;;;5.60;3.10;;;6.60;99.90;;;;;;5001158;28;20446;-70
2023/03/04 01:53:17;;;;;;;2.33;1.63;;;6.50;99.90;;;;;;5002499;28;20572;-70
2023/03/04 01:55:44;;;;;;;7.20;1.87;;;6.50;99.90;;;;;;4958979;28;20428;-69
2023/03/04 01:58:12;;;;;;;2.50;2.03;;;6.50;99.90;;;;;;5008154;28;20472;-70
2023/03/04 02:00:40;;;;;;;5.53;2.10;;;6.50;99.90;;;;;;5009396;28;20464;-71
2023/03/04 02:03:11;;;;;;;4.97;2.57;;;6.50;99.90;;;;;;5007417;28;20450;-70
2023/03/04 02:05:41;;;;;;;4.33;2.20;;;6.50;99.90;;;;;;4995856;28;20469;-70
2023/03/04 02:08:09;;;;;;;12.93;2.43;;;6.70;99.90;;;;;;5010491;28;20469;-70
2023/03/04 02:10:36;;;;;;;5.67;1.97;;;6.60;99.90;;;;;;5012929;28;21029;-70
2023/03/04 02:13:03;;;;;;;7.60;2.10;;;6.60;99.90;;;;;;5007140;28;20537;-70
2023/03/04 02:15:31;;;;;;;2.33;1.50;;;6.30;99.90;;;;;;5008239;28;20495;-70
2023/03/04 02:17:57;;;;;;;5.07;2.10;;;6.40;99.90;;;;;;5015666;28;20477;-70
2023/03/04 02:20:40;;;;;;;5.60;2.47;;;6.40;99.90;;;;;;5004198;28;20508;-70
2023/03/04 02:23:11;;;;;;;3.80;2.20;;;6.40;99.90;;;;;;5003028;28;20459;-70
2023/03/04 02:25:45;;;;;;;9.43;1.87;;;6.50;99.90;;;;;;5006293;28;20466;-70
2023/03/04 02:28:13;;;;;;;2.27;1.63;;;6.30;99.90;;;;;;5004753;28;20433;-70
2023/03/04 02:30:43;;;;;;;4.20;1.90;;;6.10;99.90;;;;;;5005213;28;20458;-70
2023/03/04 02:33:16;;;;;;;4.60;2.10;;;6.10;99.90;;;;;;5013459;28;20904;-70
2023/03/04 02:35:43;;;;;;;3.67;1.67;;;6.20;99.90;;;;;;5010511;28;20467;-69
2023/03/04 02:38:11;;;;;;;7.50;2.30;;;6.20;99.90;;;;;;5005454;28;20440;-70
2023/03/04 02:40:41;;;;;;;2.03;1.73;;;6.20;99.90;;;;;;5007199;28;20526;-70
2023/03/04 02:43:11;;;;;;;2.97;2.67;;;6.30;99.90;;;;;;5008855;28;20515;-70
2023/03/04 02:45:43;;;;;;;1.87;1.43;;;6.30;99.90;;;;;;5005685;28;20459;-69
2023/03/04 02:48:11;;;;;;;5.83;2.40;;;6.40;99.90;;;;;;5002628;28;20970;-70
2023/03/04 02:50:42;;;;;;;11.17;2.70;;;6.40;99.90;;;;;;5008479;28;20510;-69
2023/03/04 02:53:09;;;;;;;4.77;2.03;;;6.40;99.90;;;;;;5008015;28;20966;-70
2023/03/04 02:55:36;;;;;;;7.07;2.03;;;6.40;99.90;;;;;;5011465;28;20499;-69
2023/03/04 02:58:04;;;;;;;8.17;1.67;;;6.50;99.90;;;;;;5004043;28;20459;-70
2023/03/04 03:00:31;;;;;;;4.73;2.50;;;6.30;99.90;;;;;;4984721;28;20450;-70
2023/03/04 03:03:00;;;;;;;8.03;2.47;;;6.30;99.90;;;;;;5009993;28;20596;-70
2023/03/04 03:05:29;;;;;;;6.00;1.43;;;6.10;99.90;;;;;;5009047;28;20483;-70
2023/03/04 03:07:56;;;;;;;2.20;1.10;;;6.20;99.90;;;;;;5000483;28;20485;-70
2023/03/04 03:10:23;;;;;;;11.70;2.40;;;6.20;99.90;;;;;;5004741;28;20462;-70
2023/03/04 03:12:49;;;;;;;3.60;2.07;;;6.30;99.90;;;;;;4999865;28;20461;-70
2023/03/04 03:15:17;;;;;;;5.33;1.70;;;6.40;99.90;;;;;;5005987;28;20521;-70
2023/03/04 03:17:50;;;;;;;23.03;5.10;;;6.30;99.90;;;;;;5008836;28;20594;-69
2023/03/04 03:20:19;;;;;;;15.70;2.13;;;6.30;99.90;;;;;;5007590;28;20444;-70
2023/03/04 03:22:46;;;;;;;3.20;1.20;;;6.20;99.90;;;;;;5005805;28;20431;-70
2023/03/04 03:25:14;;;;;;;1.80;1.70;;;6.30;99.90;;;;;;4967297;28;20428;-70
2023/03/04 03:27:41;;;;;;;3.33;2.20;;;6.40;99.90;;;;;;5002874;28;20538;-70
2023/03/04 03:30:11;;;;;;;5.00;1.90;;;6.20;99.90;;;;;;5027267;28;20448;-70
2023/03/04 03:32:38;;;;;;;2.03;1.70;;;6.30;99.90;;;;;;5010902;28;20497;-69
2023/03/04 03:35:08;;;;;;;4.83;1.40;;;6.30;99.90;;;;;;5002975;28;20466;-69
2023/03/04 03:37:36;;;;;;;2.20;1.80;;;6.20;99.90;;;;;;5008933;28;20477;-72
2023/03/04 03:40:04;;;;;;;5.23;2.00;;;6.20;99.90;;;;;;5000040;28;20531;-70
2023/03/04 03:42:31;;;;;;;3.43;1.80;;;6.20;99.90;;;;;;5009393;28;20432;-70
2023/03/04 03:44:58;;;;;;;1.67;1.57;;;6.30;99.90;;;;;;5008163;28;20523;-70
2023/03/04 03:47:25;;;;;;;4.77;2.13;;;6.20;99.90;;;;;;5006684;28;20452;-70
2023/03/04 03:49:52;;;;;;;8.83;1.60;;;6.20;99.90;;;;;;5004244;28;20433;-70
2023/03/04 03:52:18;;;;;;;5.90;1.87;;;6.30;99.90;;;;;;5022902;28;20396;-69
2023/03/04 03:54:47;;;;;;;2.93;1.80;;;6.30;99.90;;;;;;5023169;28;20496;-70
2023/03/04 03:57:13;;;;;;;4.73;1.60;;;6.10;99.90;;;;;;5011059;28;20489;-70
2023/03/04 03:59:40;;;;;;;3.17;2.27;;;6.00;99.90;;;;;;5008726;28;20603;-70
2023/03/04 04:02:07;;;;;;;8.23;2.17;;;6.10;99.90;;;;;;5011294;28;20461;-70
2023/03/04 04:04:34;;;;;;;3.23;1.90;;;6.20;99.90;;;;;;5009442;28;20539;-70
2023/03/04 04:07:01;;;;;;;7.27;2.20;;;6.20;99.90;;;;;;5009272;28;20519;-70
2023/03/04 04:09:28;;;;;;;14.53;2.27;;;6.10;99.90;;;;;;5004933;28;20421;-70
2023/03/04 04:11:56;;;;;;;4.00;1.90;;;6.20;99.90;;;;;;5005443;28;20451;-70
2023/03/04 04:14:23;;;;;;;5.73;1.97;;;6.30;99.90;;;;;;5009408;28;20456;-70
2023/03/04 04:16:50;;;;;;;2.27;1.87;;;6.30;99.90;;;;;;4973489;28;20476;-70
2023/03/04 04:19:18;;;;;;;3.10;1.60;;;6.30;99.90;;;;;;5013250;28;20511;-70
2023/03/04 04:21:45;;;;;;;4.23;1.63;;;6.50;99.90;;;;;;5010720;28;20511;-70
2023/03/04 04:24:13;;;;;;;10.20;1.80;;;6.40;99.90;;;;;;4969685;28;20504;-70
2023/03/04 04:26:40;;;;;;;2.27;2.00;;;6.40;99.90;;;;;;5009382;28;20488;-70
2023/03/04 04:29:09;;;;;;;3.43;1.53;;;6.40;99.90;;;;;;5008761;28;20523;-70
2023/03/04 04:31:36;;;;;;;1.93;1.83;;;6.30;99.90;;;;;;5004263;28;20432;-69
2023/03/04 04:34:03;;;;;;;13.63;1.40;;;6.30;99.90;;;;;;5003607;28;20456;-70
2023/03/04 04:36:30;;;;;;;4.40;1.80;;;6.20;99.90;;;;;;5011508;28;20569;-70
2023/03/04 04:38:57;;;;;;;5.70;1.90;;;6.10;99.90;;;;;;5005009;28;20745;-70
2023/03/04 04:41:28;;;;;;;8.27;2.17;;;6.10;99.90;;;;;;5004211;28;20435;-70
2023/03/04 04:43:55;;;;;;;2.03;1.63;;;6.10;99.90;;;;;;5002358;28;20515;-70
2023/03/04 04:46:25;;;;;;;1.40;1.20;;;6.20;99.90;;;;;;5003289;28;20491;-71
2023/03/04 04:48:52;;;;;;;3.30;1.73;;;6.20;99.90;;;;;;5007182;28;20429;-71
2023/03/04 04:51:19;;;;;;;2.17;1.77;;;6.20;99.90;;;;;;5008142;28;20891;-71
2023/03/04 04:53:48;;;;;;;5.83;1.50;;;6.20;99.90;;;;;;5003848;28;20833;-71
2023/03/04 04:56:17;;;;;;;3.10;1.27;;;6.30;99.90;;;;;;4994841;28;20451;-71
2023/03/04 04:58:44;;;;;;;3.67;2.00;;;6.10;99.90;;;;;;5009025;28;20438;-71
2023/03/04 05:01:11;;;;;;;12.60;4.10;;;6.10;99.90;;;;;;5006900;28;20468;-71
2023/03/04 05:03:40;;;;;;;3.30;2.13;;;6.00;99.90;;;;;;5003548;28;20937;-71
2023/03/04 05:06:08;;;;;;;7.70;2.13;;;6.10;99.90;;;;;;5007978;28;20940;-70
2023/03/04 05:08:36;;;;;;;4.90;2.20;;;6.10;99.90;;;;;;5004891;28;20507;-70
2023/03/04 05:11:03;;;;;;;1.73;1.50;;;6.10;99.90;;;;;;5000858;28;20531;-71
2023/03/04 05:13:30;;;;;;;5.93;1.70;;;6.10;99.90;;;;;;5000381;28;20434;-71
2023/03/04 05:15:58;;;;;;;3.87;1.73;;;6.20;99.90;;;;;;5000389;28;20484;-71
2023/03/04 05:18:26;;;;;;;2.37;1.60;;;6.20;99.90;;;;;;5003827;28;20445;-71
2023/03/04 05:20:56;;;;;;;2.60;1.50;;;6.30;99.90;;;;;;5018216;28;20532;-71
2023/03/04 05:23:24;;;;;;;3.47;1.47;;;6.30;99.90;;;;;;5008307;28;20442;-71
2023/03/04 05:25:51;;;;;;;3.93;1.93;;;6.30;99.90;;;;;;5009816;28;20457;-71
2023/03/04 05:28:19;;;;;;;2.17;1.70;;;6.20;99.90;;;;;;5013879;28;20438;-71
2023/03/04 05:30:46;;;;;;;2.90;1.40;;;6.30;99.90;;;;;;5013686;28;20975;-70
2023/03/04 05:33:15;;;;;;;3.73;1.60;;;6.30;99.90;;;;;;5020446;28;20481;-71
2023/03/04 05:35:43;;;;;;;3.03;1.60;;;6.30;99.90;;;;;;5009691;28;20456;-70
2023/03/04 05:38:13;;;;;;;4.47;1.30;;;6.40;99.90;;;;;;5005133;28;20454;-70
2023/03/04 05:40:41;;;;;;;5.43;1.80;;;6.40;99.90;;;;;;5015097;28;20540;-71
2023/03/04 05:43:08;;;;;;;5.23;1.47;;;6.40;99.90;;;;;;5005455;28;20454;-71
2023/03/04 05:45:35;;;;;;;1.70;1.50;;;6.40;99.90;;;;;;5013243;28;20424;-71
2023/03/04 05:48:03;;;;;;;1.50;1.40;;;6.30;99.90;;;;;;5004614;28;20504;-71
2023/03/04 05:50:30;;;;;;;2.10;1.20;;;6.30;99.90;;;;;;5010713;28;20427;-71
2023/03/04 05:52:57;;;;;;;1.33;1.23;;;6.20;99.90;;;;;;5010913;28;20810;-71
2023/03/04 05:55:26;;;;;;;3.63;1.87;;;6.20;99.90;;;;;;4999728;28;20495;-70
2023/03/04 05:57:53;;;;;;;4.60;2.10;;;6.20;99.90;;;;;;5014220;28;20444;-71
2023/03/04 06:00:20;;;;;;;3.03;1.90;;;6.20;99.90;;;;;;4980224;28;20428;-69
2023/03/04 06:02:47;;;;;;;9.37;1.80;;;6.10;99.90;;;;;;5002301;28;20594;-71
2023/03/04 06:05:15;;;;;;;1.50;1.17;;;6.10;99.90;;;;;;4990494;28;20457;-71
2023/03/04 06:07:42;;;;;;;2.63;1.63;;;6.10;99.90;;;;;;5010429;28;20467;-71
2023/03/04 06:10:11;;;;;;;7.33;1.47;;;6.10;99.90;;;;;;5004966;28;20929;-71
2023/03/04 06:12:39;;;;;;;4.60;1.80;;;6.20;99.90;;;;;;5004707;28;20436;-71
2023/03/04 06:15:08;;;;;;;2.97;1.90;;;6.20;99.90;;;;;;5000755;28;20467;-71
2023/03/04 06:17:36;;;;;;;4.30;2.40;;;6.10;99.90;;;;;;5002668;28;20802;-72
2023/03/04 06:20:04;;;;;;;14.50;2.20;;;6.20;99.90;;;;;;5008522;28;20833;-71
2023/03/04 06:22:32;;;;;;;5.30;2.07;;;6.20;99.90;;;;;;5010622;28;20428;-70
2023/03/04 06:25:00;;;;;;;5.10;1.83;;;6.20;99.90;;;;;;5008558;28;21030;-71
2023/03/04 06:27:28;;;;;;;6.03;1.57;;;6.20;99.90;;;;;;5023510;28;20429;-70
2023/03/04 06:29:56;;;;;;;9.07;1.87;;;6.30;99.90;;;;;;4996651;28;20543;-71
2023/03/04 06:32:23;;;;;;;9.80;2.73;;;6.20;99.90;;;;;;5012970;28;20485;-70
2023/03/04 06:34:50;;;;;;;8.33;2.73;;;6.10;99.90;;;;;;5005794;28;20452;-70
2023/03/04 06:37:17;;;;;;;2.80;1.80;;;6.20;99.90;;;;;;5006371;28;20536;-71
2023/03/04 06:39:44;;;;;;;6.10;2.00;;;6.40;99.90;;;;;;5014690;28;20905;-71
2023/03/04 06:42:12;;;;;;;5.13;1.37;;;6.40;99.90;;;;;;5000844;28;20557;-70
2023/03/04 06:44:39;;;;;;;3.20;2.13;;;6.30;99.90;;;;;;5008545;28;20522;-71
2023/03/04 06:47:07;;;;;;;11.13;1.63;;;6.30;99.90;;;;;;5011518;28;20486;-71
2023/03/04 06:49:34;;;;;;;1.70;1.27;;;6.40;99.90;;;;;;5011580;28;21000;-72
2023/03/04 06:52:01;;;;;;;2.50;1.60;;;6.40;99.90;;;;;;5008076;28;20515;-71
2023/03/04 06:54:29;;;;;;;3.63;1.80;;;6.30;99.90;;;;;;5010283;28;20485;-71
2023/03/04 06:56:56;;;;;;;3.67;1.63;;;6.30;99.90;;;;;;5011388;28;20487;-71
2023/03/04 06:59:23;;;;;;;3.00;1.53;;;6.20;99.90;;;;;;5009333;28;20435;-72
2023/03/04 07:01:50;;;;;;;2.27;1.50;;;6.10;99.90;;;;;;5010437;28;20516;-71
2023/03/04 07:04:18;;;;;;;2.20;1.70;;;6.10;99.90;;;;;;5011391;28;20460;-71
2023/03/04 07:06:45;;;;;;;2.90;1.37;;;6.10;99.90;;;;;;5003506;28;20463;-71
2023/03/04 07:09:12;;;;;;;9.20;1.47;;;6.20;99.90;;;;;;5006653;28;20532;-72
2023/03/04 07:11:39;;;;;;;6.27;2.20;;;6.20;99.90;;;;;;5012590;28;20489;-72
2023/03/04 07:14:06;;;;;;;2.90;1.63;;;6.20;99.90;;;;;;5006674;28;20533;-70
2023/03/04 07:16:33;;;;;;;5.10;1.80;;;6.30;99.90;;;;;;5010670;28;20493;-73
2023/03/04 07:19:00;;;;;;;1.73;1.57;;;6.20;99.90;;;;;;5003820;28;20865;-73
2023/03/04 07:21:29;;;;;;;2.50;1.43;;;6.20;99.90;;;;;;5006477;28;20540;-69
2023/03/04 07:23:58;;;;;;;3.03;2.00;;;6.30;99.90;;;;;;5007932;28;20434;-70
2023/03/04 07:26:25;;;;;;;3.63;1.40;;;6.20;99.90;;;;;;5007451;28;20891;-71
2023/03/04 07:28:53;;;;;;;3.00;1.90;;;6.20;99.90;;;;;;5005458;28;20488;-70
2023/03/04 07:31:23;;;;;;;2.13;1.57;;;6.30;99.90;;;;;;5008637;28;20991;-70
2023/03/04 07:33:50;;;;;;;23.37;1.83;;;6.30;99.90;;;;;;5016426;28;20421;-70
2023/03/04 07:36:19;;;;;;;4.80;1.77;;;6.40;99.90;;;;;;5007101;28;20468;-70
2023/03/04 07:38:49;;;;;;;4.40;1.90;;;6.40;99.90;;;;;;5001187;28;20442;-70
2023/03/04 07:41:17;;;;;;;3.63;1.50;;;6.30;99.90;;;;;;5003235;28;20527;-71
2023/03/04 07:43:45;;;;;;;3.60;2.03;;;6.30;99.90;;;;;;5004062;28;20806;-70
2023/03/04 07:46:12;;;;;;;1.87;1.27;;;6.40;99.90;;;;;;4994651;28;20862;-70
2023/03/04 07:48:41;;;;;;;4.43;2.13;;;6.50;99.90;;;;;;5002627;28;20967;-71
2023/03/04 07:51:10;;;;;;;2.07;1.43;;;6.50;99.90;;;;;;5004882;28;20432;-71
2023/03/04 07:53:39;;;;;;;6.53;1.30;;;6.70;99.90;;;;;;5003976;28;20441;-70
2023/03/04 07:56:11;;;;;;;8.10;1.50;;;6.70;99.90;;;;;;5007405;28;20569;-70
2023/03/04 07:58:38;;;;;;;2.33;1.70;;;6.90;99.90;;;;;;5005963;28;20518;-71
2023/03/04 08:01:09;;;;;;;2.27;1.67;;;6.90;99.90;;;;;;5008561;28;20530;-70
2023/03/04 08:03:36;;;;;;;1.80;1.30;;;6.90;99.90;;;;;;5003106;28;20460;-70
2023/03/04 08:06:06;;;;;;;1.10;0.90;;;7.10;99.90;;;;;;5007686;28;20464;-70
2023/03/04 08:08:33;;;;;;;3.23;1.40;;;7.20;99.90;;;;;;5007864;28;20922;-71
2023/03/04 08:11:00;;;;;;;3.10;1.30;;;7.10;99.90;;;;;;5002137;28;20484;-70
2023/03/04 08:13:29;;;;;;;4.07;1.60;;;7.20;99.90;;;;;;4989095;28;20553;-71
2023/03/04 08:15:56;;;;;;;3.67;1.10;;;7.20;99.90;;;;;;5004195;28;20542;-70
2023/03/04 08:18:23;;;;;;;3.13;2.03;;;7.30;99.90;;;;;;5011705;28;20844;-70
2023/03/04 08:20:51;;;;;;;1.40;1.30;;;7.60;99.90;;;;;;5001565;28;20547;-69
2023/03/04 08:23:18;;;;;;;2.40;1.87;;;7.70;99.90;;;;;;5011469;28;20463;-70
2023/03/04 08:25:46;;;;;;;2.13;1.20;;;7.60;99.90;;;;;;5008109;28;20523;-71
2023/03/04 08:28:17;;;;;;;2.10;1.87;;;7.80;99.90;;;;;;5005195;28;20892;-70
2023/03/04 08:30:45;;;;;;;4.17;1.00;;;8.20;99.90;;;;;;5000151;28;20473;-72
2023/03/04 08:33:12;;;;;;;3.43;1.30;;;8.20;99.90;;;;;;5007215;28;20602;-70
2023/03/04 08:35:40;;;;;;;1.40;1.30;;;8.00;99.90;;;;;;4997732;28;20512;-70
2023/03/04 08:38:07;;;;;;;2.17;1.50;;;8.00;99.90;;;;;;5004266;28;20483;-70
2023/03/04 08:40:34;;;;;;;1.83;1.30;;;7.90;99.90;;;;;;5011540;28;20536;-70
2023/03/04 08:43:01;;;;;;;2.07;1.87;;;8.00;99.90;;;;;;5005854;28;20439;-71
2023/03/04 08:45:28;;;;;;;7.37;3.30;;;8.10;99.90;;;;;;5001875;28;20424;-70
2023/03/04 08:47:56;;;;;;;4.93;1.60;;;8.30;99.90;;;;;;5002759;28;20858;-70
2023/03/04 08:50:23;;;;;;;2.83;2.03;;;8.30;99.90;;;;;;4999141;28;20551;-70
2023/03/04 08:52:50;;;;;;;3.63;1.87;;;8.20;99.90;;;;;;5007601;28;20876;-71
2023/03/04 08:55:17;;;;;;;14.47;1.90;;;8.00;99.90;;;;;;5004153;28;20540;-71
2023/03/04 08:57:44;;;;;;;3.20;1.63;;;8.10;99.90;;;;;;5008280;28;20481;-70
2023/03/04 09:00:13;;;;;;;5.20;2.13;;;8.10;99.90;;;;;;5020588;28;20518;-69
2023/03/04 09:02:40;;;;;;;3.73;1.73;;;8.00;99.90;;;;;;5011376;28;20469;-71
2023/03/04 09:05:09;;;;;;;6.40;1.63;;;7.80;99.90;;;;;;5004517;28;20466;-70
2023/03/04 09:07:36;;;;;;;2.73;1.30;;;7.90;99.90;;;;;;5002834;28;20487;-70
2023/03/04 09:10:03;;;;;;;2.73;2.30;;;8.00;99.90;;;;;;5006045;28;20528;-70
2023/03/04 09:12:30;;;;;;;11.30;2.00;;;7.90;99.90;;;;;;4955701;28;20439;-70
2023/03/04 09:14:58;;;;;;;12.83;2.10;;;7.70;99.90;;;;;;5005873;28;20828;-70
2023/03/04 09:17:25;;;;;;;3.10;1.20;;;7.50;99.90;;;;;;5005011;28;21018;-72
2023/03/04 09:19:51;;;;;;;19.63;2.40;;;7.20;99.90;;;;;;5004137;28;20455;-70
2023/03/04 09:22:20;;;;;;;1.77;1.23;;;6.90;99.90;;;;;;5001961;28;20468;-69
2023/03/04 09:24:50;;;;;;;4.47;2.40;;;6.80;99.90;;;;;;5005873;28;20876;-70
2023/03/04 09:27:18;;;;;;;5.47;2.57;;;7.00;99.90;;;;;;4981520;28;20578;-69
2023/03/04 09:29:45;;;;;;;3.13;1.53;;;7.10;99.90;;;;;;5011013;28;20479;-70
2023/03/04 09:32:14;;;;;;;2.97;1.70;;;7.20;99.90;;;;;;5003728;28;20461;-71
2023/03/04 09:34:41;;;;;;;3.70;2.37;;;7.20;99.90;;;;;;5003188;28;20473;-71
2023/03/04 09:37:08;;;;;;;5.17;2.40;;;7.40;99.90;;;;;;5004242;28;20516;-71
2023/03/04 09:39:36;;;;;;;3.60;1.73;;;7.40;99.90;;;;;;5009424;28;20462;-71
2023/03/04 09:42:06;;;;;;;3.40;1.67;;;7.30;99.90;;;;;;5007672;28;20468;-71
2023/03/04 09:44:36;;;;;;;5.83;2.07;;;7.40;99.90;;;;;;5005757;28;20484;-71
2023/03/04 09:47:11;;;;;;;2.20;1.93;;;7.40;99.90;;;;;;5002381;28;20475;-71
2023/03/04 09:49:42;;;;;;;8.93;2.73;;;7.60;99.90;;;;;;5011045;28;20431;-71
2023/03/04 09:52:18;;;;;;;6.40;2.60;;;7.50;99.90;;;;;;5005530;28;20523;-71
2023/03/04 09:55:02;;;;;;;3.80;1.70;;;7.50;99.90;;;;;;5012253;28;20419;-71
2023/03/04 09:57:40;;;;;;;3.07;1.70;;;7.50;99.90;;;;;;5005137;28;20448;-70
2023/03/04 10:00:18;;;;;;;3.83;2.53;;;7.60;99.90;;;;;;5000299;28;20463;-70
2023/03/04 10:02:59;;;;;;;3.30;1.63;;;7.90;99.90;;;;;;5007341;28;20539;-70
2023/03/04 10:05:27;;;;;;;4.83;1.90;;;8.00;99.90;;;;;;5003319;28;20523;-70
2023/03/04 10:08:00;;;;;;;2.70;1.30;;;7.90;99.90;;;;;;5003742;28;20456;-71
2023/03/04 10:10:33;;;;;;;6.23;1.67;;;8.10;99.90;;;;;;5005389;28;20485;-71
2023/03/04 10:13:02;;;;;;;3.33;1.90;;;8.10;99.90;;;;;;5003942;28;20469;-71
2023/03/04 10:15:34;;;;;;;1.30;1.17;;;7.80;99.90;;;;;;5006097;28;20491;-70
2023/03/04 10:18:11;;;;;;;1.60;1.43;;;7.70;99.90;;;;;;5009931;28;20866;-71
2023/03/04 10:20:48;;;;;;;1.30;1.00;;;7.60;99.90;;;;;;5009355;28;20526;-71
2023/03/04 10:23:21;;;;;;;3.17;1.67;;;7.50;99.90;;;;;;5003187;28;20428;-70
2023/03/04 10:25:53;;;;;;;3.57;1.87;;;7.40;99.90;;;;;;5007651;28;20755;-71
2023/03/04 10:28:24;;;;;;;2.43;1.97;;;7.40;99.90;;;;;;4971536;28;20502;-71
2023/03/04 10:30:57;;;;;;;8.00;1.97;;;7.50;99.90;;;;;;5005454;28;20457;-71
2023/03/04 10:33:27;;;;;;;10.03;2.30;;;7.60;99.90;;;;;;5001573;28;20621;-71
2023/03/04 10:36:01;;;;;;;3.30;2.70;;;7.60;99.90;;;;;;5007885;28;20493;-71
2023/03/04 10:38:31;;;;;;;6.23;1.80;;;7.60;99.90;;;;;;5000337;28;20432;-71
2023/03/04 10:41:00;;;;;;;5.23;2.30;;;7.50;99.90;;;;;;5000842;28;20450;-71
2023/03/04 10:43:27;;;;;;;11.13;1.87;;;7.50;99.90;;;;;;4973338;28;20561;-71
2023/03/04 10:46:00;;;;;;;1.60;1.10;;;7.50;99.90;;;;;;5001570;28;20440;-71
2023/03/04 10:48:28;;;;;;;12.23;1.93;;;7.60;99.90;;;;;;5003000;28;20443;-71
2023/03/04 10:51:13;;;;;;;2.80;2.07;;;7.50;99.90;;;;;;5000612;28;20420;-72
2023/03/04 10:53:41;;;;;;;2.00;1.53;;;7.50;99.90;;;;;;5009718;28;20466;-72
2023/03/04 10:56:35;;;;;;;2.63;1.80;;;7.50;99.90;;;;;;5005789;28;20975;-71
2023/03/04 10:59:31;;;;;;;1.50;1.07;;;7.50;99.90;;;;;;5004429;28;20493;-70
2023/03/04 11:01:58;;;;;;;5.60;2.53;;;7.60;99.90;;;;;;5012179;28;20654;-71
2023/03/04 11:04:32;;;;;;;5.37;2.70;;;7.60;99.90;;;;;;5007980;28;20536;-71
2023/03/04 11:06:59;;;;;;;6.50;1.60;;;7.80;99.90;;;;;;5008329;28;20536;-71
2023/03/04 11:09:28;;;;;;;2.30;1.80;;;8.10;99.90;;;;;;5008473;28;20495;-71
2023/03/04 11:11:59;;;;;;;2.23;1.30;;;8.20;99.90;;;;;;5011798;28;20428;-71
2023/03/04 11:14:30;;;;;;;4.10;2.80;;;8.10;99.90;;;;;;5005616;28;20440;-71
2023/03/04 11:16:59;;;;;;;3.83;2.80;;;8.10;99.90;;;;;;5002642;28;20515;-71
2023/03/04 11:19:32;;;;;;;3.40;1.50;;;8.10;99.90;;;;;;5008820;28;20436;-71
2023/03/04 11:22:01;;;;;;;2.10;1.57;;;8.20;99.90;;;;;;5004476;28;20436;-73
2023/03/04 11:24:31;;;;;;;7.50;1.97;;;8.30;99.90;;;;;;5007696;28;20428;-70
2023/03/04 11:27:04;;;;;;;1.73;1.63;;;8.30;99.90;;;;;;5006210;28;20475;-71
2023/03/04 11:29:37;;;;;;;1.40;1.30;;;8.40;99.90;;;;;;5021705;28;20504;-71
2023/03/04 11:32:10;;;;;;;4.53;1.47;;;8.30;99.90;;;;;;5007860;28;20478;-71
2023/03/04 11:34:42;;;;;;;52.07;2.77;;;8.40;99.90;;;;;;5009559;28;20514;-71
2023/03/04 11:37:16;;;;;;;1.97;1.77;;;8.20;99.90;;;;;;5010540;28;20459;-70
2023/03/04 11:39:49;;;;;;;6.90;3.83;;;8.00;99.90;;;;;;5008023;28;20440;-72
2023/03/04 11:42:28;;;;;;;1.20;1.07;;;8.10;99.90;;;;;;5005489;28;20921;-71
2023/03/04 11:44:55;;;;;;;3.30;1.63;;;8.10;99.90;;;;;;5003399;28;21302;-71
2023/03/04 11:47:50;;;;;;;2.60;1.50;;;8.10;99.90;;;;;;5005586;28;20490;-71
2023/03/04 11:50:37;;;;;;;3.77;2.10;;;8.00;99.90;;;;;;5003993;28;20573;-71
2023/03/04 11:53:33;;;;;;;4.40;1.63;;;7.80;99.90;;;;;;5005818;28;20453;-71
2023/03/04 11:56:16;;;;;;;3.10;1.20;;;7.60;99.90;;;;;;5010503;28;20473;-71
2023/03/04 11:59:15;;;;;;;6.97;1.63;;;7.90;99.90;;;;;;4998383;28;20432;-71
2023/03/04 12:01:49;;;;;;;2.50;1.40;;;8.10;99.90;;;;;;5001861;28;20462;-71
2023/03/04 12:04:37;;;;;;;1.83;1.27;;;8.60;99.90;;;;;;5008612;28;20438;-71
2023/03/04 12:07:15;;;;;;;3.07;1.87;;;8.50;99.90;;;;;;5005819;28;20582;-71
2023/03/04 12:09:52;;;;;;;2.37;2.17;;;8.50;99.90;;;;;;5011018;28;20520;-71
2023/03/04 12:12:29;;;;;;;2.03;1.40;;;8.60;99.90;;;;;;5016358;28;20459;-71
2023/03/04 12:15:09;;;;;;;6.00;2.60;;;8.70;99.90;;;;;;4999880;28;20533;-71
2023/03/04 12:18:05;;;;;;;14.37;2.43;;;8.60;99.90;;;;;;5005371;28;20496;-71
2023/03/04 12:20:50;;;;;;;2.93;1.90;;;8.50;99.90;;;;;;5005222;28;20446;-71
2023/03/04 12:23:40;;;;;;;3.53;1.80;;;8.40;99.90;;;;;;5006078;28;20592;-70
2023/03/04 12:26:19;;;;;;;2.13;1.93;;;8.30;99.90;;;;;;5001185;28;20516;-70
2023/03/04 12:28:53;;;;;;;3.30;1.80;;;8.40;99.90;;;;;;5002274;28;20438;-71
2023/03/04 12:31:41;;;;;;;2.03;1.93;;;8.10;99.90;;;;;;5001020;28;20536;-71
2023/03/04 12:34:30;;;;;;;3.73;2.50;;;8.00;99.90;;;;;;5010335;28;20917;-70
2023/03/04 12:37:18;;;;;;;2.40;2.20;;;8.00;99.90;;;;;;5006485;28;20958;-71
2023/03/04 12:39:58;;;;;;;2.53;2.07;;;8.00;99.90;;;;;;5002603;28;20553;-71
2023/03/04 12:42:33;;;;;;;2.27;2.00;;;8.00;99.90;;;;;;5004639;28;20427;-72
2023/03/04 12:45:09;;;;;;;1.60;1.40;;;8.00;99.90;;;;;;4996335;28;20464;-71
2023/03/04 12:47:52;;;;;;;2.60;2.40;;;7.90;99.90;;;;;;4999852;28;20547;-71
2023/03/04 12:50:31;;;;;;;2.03;1.80;;;8.00;99.90;;;;;;5002839;28;20560;-70
2023/03/04 12:53:05;;;;;;;2.80;1.90;;;7.90;99.90;;;;;;5000990;28;20432;-70
2023/03/04 12:55:39;;;;;;;2.77;1.70;;;7.90;99.90;;;;;;5001537;28;20465;-70
2023/03/04 12:58:13;;;;;;;1.90;1.40;;;7.80;99.90;;;;;;5000834;28;20478;-70
2023/03/04 13:00:48;;;;;;;16.87;2.90;;;7.70;99.90;;;;;;5006217;28;20816;-71
2023/03/04 13:03:24;;;;;;;2.10;1.80;;;7.90;99.90;;;;;;5004849;28;20428;-70
2023/03/04 13:06:04;;;;;;;2.17;1.60;;;8.10;99.90;;;;;;5004961;28;20487;-70
2023/03/04 13:08:38;;;;;;;3.03;1.90;;;8.30;99.90;;;;;;5000964;28;20808;-70